Time;durP1;ratioP1;P1;durP2;ratioP2;P2;SDS_P1;SDS_P2;PMS_P1;PMS_P2;Temp;Humidity;BMP_temperature;BMP_pressure;BME280_temperature;BME280_humidity;BME280_pressure;Samples;Min_cycle;Max_cycle;Signal;HPM_P1;HPM_P2
2022/03/30 00:00:13;;;;;;;31.50;11.77;;;;;;;8.25;82.87;94682.56;5031251;28;20763;-72
2022/03/30 00:02:40;;;;;;;22.77;12.07;;;;;;;8.27;82.94;94680.72;5031363;28;20737;-72
2022/03/30 00:05:07;;;;;;;32.15;12.48;;;;;;;8.44;81.51;94674.38;5031131;28;24477;-72
2022/03/30 00:07:34;;;;;;;30.67;12.30;;;;;;;8.59;80.48;94670.66;5030912;28;24486;-72
2022/03/30 00:10:01;;;;;;;29.43;12.33;;;;;;;8.78;81.75;94677.91;5031031;28;24416;-72
2022/03/30 00:12:29;;;;;;;32.67;12.70;;;;;;;8.16;85.13;94681.47;5031281;28;20788;-73
2022/03/30 00:14:56;;;;;;;25.15;11.90;;;;;;;8.21;85.45;94681.13;5031075;28;20772;-72
2022/03/30 00:17:22;;;;;;;23.05;10.80;;;;;;;8.16;85.29;94685.81;5031002;28;24447;-72
2022/03/30 00:19:49;;;;;;;32.38;13.13;;;;;;;8.22;84.83;94683.59;5030719;28;24459;-73
2022/03/30 00:22:16;;;;;;;20.15;11.43;;;;;;;8.42;85.96;94671.09;5029937;28;24439;-73
2022/03/30 00:24:43;;;;;;;20.67;11.82;;;;;;;8.44;86.69;94677.75;5030438;28;20764;-74
2022/03/30 00:27:10;;;;;;;21.10;11.32;;;;;;;8.35;84.56;94677.59;5030357;28;20837;-73
2022/03/30 00:29:38;;;;;;;19.73;11.07;;;;;;;8.36;84.95;94679.22;5030162;28;20810;-73
2022/03/30 00:32:05;;;;;;;19.13;11.60;;;;;;;8.35;85.16;94667.25;5030092;28;24471;-73
2022/03/30 00:34:31;;;;;;;23.27;11.82;;;;;;;8.12;85.92;94662.00;5029724;28;24439;-72
2022/03/30 00:36:58;;;;;;;23.92;12.18;;;;;;;8.03;86.66;94667.78;5030312;28;24420;-73
2022/03/30 00:39:25;;;;;;;25.53;12.43;;;;;;;7.97;87.03;94663.03;5029891;28;24482;-73
2022/03/30 00:41:51;;;;;;;24.65;12.02;;;;;;;8.08;86.97;94657.13;5030109;28;20761;-72
2022/03/30 00:44:17;;;;;;;24.55;11.00;;;;;;;8.17;86.20;94662.47;5030008;28;20826;-73
2022/03/30 00:46:45;;;;;;;27.65;13.23;;;;;;;8.09;86.25;94653.66;5030076;28;21169;-73
2022/03/30 00:49:12;;;;;;;19.70;11.60;;;;;;;8.16;85.56;94652.28;5029909;28;24491;-73
2022/03/30 00:51:39;;;;;;;26.88;13.93;;;;;;;8.17;85.18;94659.91;5029757;28;24447;-74
2022/03/30 00:54:06;;;;;;;27.50;13.38;;;;;;;8.21;85.00;94656.16;5029828;28;24470;-73
2022/03/30 00:56:36;;;;;;;24.20;13.13;;;;;;;8.18;84.20;94655.56;5030001;28;20760;-73
2022/03/30 00:59:05;;;;;;;28.85;13.88;;;;;;;8.12;85.39;94650.81;5029359;28;20807;-73
2022/03/30 01:01:31;;;;;;;27.92;13.45;;;;;;;8.14;84.45;94654.13;5029102;28;20749;-72
2022/03/30 01:04:02;;;;;;;34.20;14.50;;;;;;;8.00;85.77;94650.75;5029964;28;20810;-72
2022/03/30 01:06:28;;;;;;;22.15;13.50;;;;;;;8.12;85.15;94649.09;5029948;28;20857;-73
2022/03/30 01:08:55;;;;;;;24.30;13.20;;;;;;;8.28;85.07;94650.56;5033059;28;21491;-73
2022/03/30 01:11:22;;;;;;;37.65;14.88;;;;;;;8.10;85.63;94644.97;5033188;28;20752;-73
2022/03/30 01:13:49;;;;;;;30.25;15.50;;;;;;;8.06;85.23;94638.38;5032996;28;24447;-74
2022/03/30 01:16:16;;;;;;;24.38;13.60;;;;;;;8.12;85.46;94633.63;5032840;28;24965;-74
2022/03/30 01:18:43;;;;;;;18.70;11.63;;;;;;;8.47;86.96;94628.53;5033400;28;20820;-73
2022/03/30 01:21:11;;;;;;;20.03;11.17;;;;;;;8.30;89.70;94626.28;4972810;28;1715402;-72
2022/03/30 01:23:37;;;;;;;20.20;11.68;;;;;;;8.15;89.64;94620.47;5034345;28;24844;-72
2022/03/30 01:26:05;;;;;;;24.15;13.82;;;;;;;8.17;88.03;94616.06;5034224;28;24424;-73
2022/03/30 01:28:33;;;;;;;20.88;12.73;;;;;;;8.18;89.14;94606.56;5034250;28;24423;-73
2022/03/30 01:33:45;;;;;;;22.88;12.02;;;;;;;8.37;88.66;94600.88;5033934;28;24411;-72
2022/03/30 01:36:13;;;;;;;20.73;13.13;;;;;;;8.04;89.41;94591.25;5034035;28;24512;-73
2022/03/30 01:38:39;;;;;;;28.75;13.52;;;;;;;7.99;88.30;94589.00;5034090;28;24428;-73
2022/03/30 01:41:07;;;;;;;34.03;14.38;;;;;;;7.98;88.58;94589.94;5033585;28;24824;-73
2022/03/30 01:43:33;;;;;;;20.90;13.57;;;;;;;8.08;87.91;94584.94;5034245;28;24451;-73
2022/03/30 01:46:00;;;;;;;29.55;14.48;;;;;;;8.10;88.20;94580.50;5033914;28;24427;-73
2022/03/30 01:48:26;;;;;;;24.42;14.95;;;;;;;7.99;89.26;94576.09;5033977;28;24426;-72
2022/03/30 01:50:54;;;;;;;21.25;14.25;;;;;;;8.02;87.90;94570.75;5033518;28;24424;-72
2022/03/30 01:53:21;;;;;;;30.50;14.68;;;;;;;7.99;88.62;94568.38;5033829;28;20823;-72
2022/03/30 01:55:48;;;;;;;19.87;14.53;;;;;;;8.16;87.00;94570.56;5033521;28;20808;-73
2022/03/30 01:58:16;;;;;;;22.73;14.60;;;;;;;8.24;86.95;94568.25;5033471;28;25023;-73
2022/03/30 02:00:42;;;;;;;29.50;14.75;;;;;;;8.17;88.58;94564.47;5033403;28;24428;-73
2022/03/30 02:03:09;;;;;;;24.60;14.55;;;;;;;8.11;88.93;94553.78;5033639;28;24423;-72
2022/03/30 02:05:36;;;;;;;27.52;14.50;;;;;;;8.24;90.04;94554.53;5033394;28;24428;-72
2022/03/30 02:08:02;;;;;;;22.63;13.60;;;;;;;8.32;92.17;94551.41;5033775;28;24420;-72
2022/03/30 02:10:30;;;;;;;22.98;14.27;;;;;;;8.20;92.55;94550.53;5032954;28;24416;-72
2022/03/30 02:12:58;;;;;;;28.52;14.63;;;;;;;7.92;94.80;94551.69;5033321;28;25183;-72
2022/03/30 02:15:25;;;;;;;29.83;15.95;;;;;;;7.58;95.27;94548.94;5033258;28;24489;-73
2022/03/30 02:17:52;;;;;;;24.42;14.50;;;;;;;7.55;94.73;94548.34;5033165;28;21285;-72
2022/03/30 02:20:18;;;;;;;21.60;12.68;;;;;;;7.69;94.13;94538.69;5031648;28;24428;-73
2022/03/30 02:22:45;;;;;;;21.40;13.15;;;;;;;7.87;92.83;94539.16;5033072;28;24416;-73
2022/03/30 02:25:11;;;;;;;21.75;12.55;;;;;;;7.95;92.47;94538.59;5033032;28;24420;-73
2022/03/30 02:27:39;;;;;;;25.50;13.35;;;;;;;7.84;92.94;94534.19;5033067;28;24430;-72
2022/03/30 02:30:07;;;;;;;19.73;11.90;;;;;;;7.94;92.20;94544.69;5032902;28;24422;-73
2022/03/30 02:32:34;;;;;;;17.10;11.90;;;;;;;8.08;91.55;94541.91;5033201;28;21152;-73
2022/03/30 02:35:00;;;;;;;29.35;11.95;;;;;;;8.09;90.42;94537.59;5032762;28;24529;-73
2022/03/30 02:37:27;;;;;;;39.28;12.32;;;;;;;8.08;89.68;94531.59;5032804;28;24424;-72
2022/03/30 02:39:53;;;;;;;22.90;11.70;;;;;;;8.05;89.84;94526.69;5032840;28;24881;-72
2022/03/30 02:42:19;;;;;;;20.02;12.02;;;;;;;8.06;89.99;94523.16;5032622;28;24424;-72
2022/03/30 02:44:47;;;;;;;24.55;11.80;;;;;;;8.04;90.50;94532.75;5033061;28;20755;-74
2022/03/30 02:47:14;;;;;;;22.30;12.70;;;;;;;8.02;91.58;94521.75;5032903;28;20878;-73
2022/03/30 02:49:40;;;;;;;26.85;12.48;;;;;;;8.01;92.98;94527.84;5032699;28;20760;-73
2022/03/30 02:52:07;;;;;;;25.95;12.48;;;;;;;7.91;93.70;94530.25;5032781;28;20814;-73
2022/03/30 02:54:34;;;;;;;22.17;12.15;;;;;;;7.82;96.99;94525.75;5032164;28;20776;-73
2022/03/30 02:57:01;;;;;;;28.80;12.52;;;;;;;7.84;98.38;94529.03;5031553;28;21181;-73
2022/03/30 02:59:27;;;;;;;22.53;13.07;;;;;;;7.89;97.06;94526.13;5031321;28;24486;-73
2022/03/30 03:01:55;;;;;;;20.17;11.95;;;;;;;7.94;96.61;94519.72;5031384;28;24494;-73
2022/03/30 03:04:22;;;;;;;22.83;11.63;;;;;;;7.97;97.19;94522.09;5031628;28;20804;-73
2022/03/30 03:06:49;;;;;;;19.80;11.88;;;;;;;8.03;96.93;94517.41;5030901;28;25264;-71
2022/03/30 03:09:15;;;;;;;20.25;12.45;;;;;;;7.96;96.93;94512.69;5031216;28;21309;-73
2022/03/30 03:11:42;;;;;;;22.00;13.87;;;;;;;7.62;100.00;94509.13;5030894;28;24527;-72
2022/03/30 03:14:09;;;;;;;19.42;12.55;;;;;;;7.69;100.00;94504.38;5031113;28;24432;-73
2022/03/30 03:16:36;;;;;;;23.90;13.88;;;;;;;7.81;100.00;94510.41;5031022;28;24485;-73
2022/03/30 03:19:04;;;;;;;27.35;14.20;;;;;;;7.73;100.00;94509.19;5030707;28;24446;-72
2022/03/30 03:21:30;;;;;;;27.60;15.15;;;;;;;7.52;100.00;94508.13;5030995;28;24538;-73
2022/03/30 03:23:57;;;;;;;23.30;14.25;;;;;;;7.60;100.00;94505.88;5028413;28;24432;-73
2022/03/30 03:26:23;;;;;;;24.48;14.02;;;;;;;7.65;100.00;94508.09;5030755;28;24428;-72
2022/03/30 03:28:50;;;;;;;20.88;14.32;;;;;;;7.76;100.00;94513.31;5030836;28;24543;-73
2022/03/30 03:31:16;;;;;;;25.15;14.02;;;;;;;7.85;100.00;94504.91;5027299;28;24532;-73
2022/03/30 03:33:43;;;;;;;18.95;13.52;;;;;;;7.80;100.00;94513.91;5031937;28;24813;-74
2022/03/30 03:36:11;;;;;;;19.63;13.95;;;;;;;7.88;100.00;94509.84;5031778;28;24448;-74
2022/03/30 03:38:37;;;;;;;21.60;13.52;;;;;;;7.90;100.00;94512.34;5031936;28;20761;-73
2022/03/30 03:41:04;;;;;;;22.30;13.32;;;;;;;7.90;100.00;94513.16;5031600;28;24430;-72
2022/03/30 03:43:30;;;;;;;20.33;13.95;;;;;;;7.79;100.00;94509.69;5031700;28;24427;-74
2022/03/30 03:45:56;;;;;;;29.33;13.60;;;;;;;7.81;100.00;94508.66;5031424;28;24423;-74
2022/03/30 03:48:23;;;;;;;19.73;12.75;;;;;;;7.89;100.00;94506.31;5031699;28;24403;-72
2022/03/30 03:50:49;;;;;;;25.88;13.30;;;;;;;7.90;100.00;94504.59;5031468;28;24431;-74
2022/03/30 03:53:17;;;;;;;18.83;12.77;;;;;;;7.89;100.00;94502.94;5031719;28;24474;-74
2022/03/30 03:55:44;;;;;;;20.98;12.68;;;;;;;7.90;100.00;94502.03;5031656;28;20819;-73
2022/03/30 03:58:12;;;;;;;30.58;12.40;;;;;;;7.99;100.00;94498.75;5030177;28;24435;-72
2022/03/30 04:00:39;;;;;;;23.00;12.98;;;;;;;7.98;100.00;94504.84;5030927;28;24446;-72
2022/03/30 04:03:05;;;;;;;18.50;11.75;;;;;;;7.94;100.00;94504.25;5031022;28;24489;-73
2022/03/30 04:05:32;;;;;;;20.07;12.47;;;;;;;7.99;100.00;94497.00;5031307;28;24428;-72
2022/03/30 04:07:59;;;;;;;21.48;12.45;;;;;;;7.94;100.00;94493.94;5031425;28;20860;-72
2022/03/30 04:10:27;;;;;;;20.92;12.48;;;;;;;7.89;100.00;94496.00;5031097;28;20780;-73
2022/03/30 04:12:53;;;;;;;24.03;13.00;;;;;;;7.91;100.00;94490.75;5031252;28;20825;-73
2022/03/30 04:15:19;;;;;;;24.17;11.85;;;;;;;7.92;100.00;94487.25;5031005;28;20777;-72
2022/03/30 04:17:48;;;;;;;21.83;11.60;;;;;;;7.92;100.00;94489.81;5031326;28;20837;-73
2022/03/30 04:20:15;;;;;;;18.50;11.95;;;;;;;7.96;100.00;94488.66;5031138;28;20806;-73
2022/03/30 04:22:42;;;;;;;22.27;12.88;;;;;;;7.87;100.00;94487.59;5031001;28;20768;-72
2022/03/30 04:25:09;;;;;;;23.52;12.40;;;;;;;7.87;100.00;94485.00;5030880;28;20776;-72
2022/03/30 04:27:44;;;;;;;20.60;12.25;;;;;;;7.85;100.00;94486.88;5031002;28;20765;-73
2022/03/30 04:30:11;;;;;;;21.52;11.88;;;;;;;7.88;100.00;94486.66;5030863;28;20800;-73
2022/03/30 04:32:38;;;;;;;21.27;11.73;;;;;;;7.92;100.00;94479.50;5030989;28;24434;-73
2022/03/30 04:35:05;;;;;;;24.75;12.48;;;;;;;7.95;100.00;94484.44;5030797;28;20817;-72
2022/03/30 04:37:32;;;;;;;20.42;11.75;;;;;;;7.89;100.00;94479.72;5030728;28;24996;-72
2022/03/30 04:39:58;;;;;;;25.17;11.80;;;;;;;7.87;100.00;94479.03;5030761;28;24415;-73
2022/03/30 04:42:25;;;;;;;17.67;11.23;;;;;;;7.89;100.00;94482.31;5029747;28;24442;-73
2022/03/30 04:44:53;;;;;;;18.30;11.05;;;;;;;7.90;100.00;94476.25;5030553;28;24490;-73
2022/03/30 04:47:19;;;;;;;23.90;11.27;;;;;;;7.80;100.00;94470.91;5030939;28;20760;-72
2022/03/30 04:49:46;;;;;;;22.10;11.25;;;;;;;7.76;100.00;94469.50;5030509;28;24470;-74
2022/03/30 04:52:12;;;;;;;21.25;11.30;;;;;;;7.78;100.00;94467.63;5030713;28;24420;-73
2022/03/30 04:54:38;;;;;;;21.30;10.90;;;;;;;7.73;100.00;94462.81;5030470;28;24427;-73
2022/03/30 04:57:05;;;;;;;20.95;11.27;;;;;;;7.77;100.00;94476.28;5030420;28;24516;-74
2022/03/30 04:59:31;;;;;;;22.70;11.05;;;;;;;7.81;100.00;94466.59;5030365;28;24526;-73
2022/03/30 05:01:59;;;;;;;20.55;10.25;;;;;;;7.82;100.00;94461.31;5030444;28;24427;-73
2022/03/30 05:04:26;;;;;;;21.67;10.40;;;;;;;7.85;100.00;94455.13;5030575;28;20821;-73
2022/03/30 05:06:53;;;;;;;22.73;10.00;;;;;;;7.86;100.00;94452.44;5030209;28;24424;-74
2022/03/30 05:09:19;;;;;;;18.23;11.35;;;;;;;7.96;100.00;94458.53;5029955;28;24829;-75
2022/03/30 05:11:46;;;;;;;26.07;11.50;;;;;;;8.12;100.00;94457.41;5029301;28;24840;-78
2022/03/30 05:14:12;;;;;;;21.83;11.70;;;;;;;7.82;100.00;94451.00;5027628;28;24436;-73
2022/03/30 05:16:39;;;;;;;15.55;11.43;;;;;;;7.65;100.00;94452.25;5029218;28;24451;-73
2022/03/30 05:19:07;;;;;;;19.05;10.82;;;;;;;7.62;100.00;94449.06;5030203;28;24436;-73
2022/03/30 05:21:33;;;;;;;24.00;11.95;;;;;;;7.56;100.00;94446.91;5029229;28;24527;-74
2022/03/30 05:23:59;;;;;;;21.15;11.88;;;;;;;7.51;100.00;94448.06;5030202;28;24841;-74
2022/03/30 05:26:26;;;;;;;22.97;11.00;;;;;;;7.59;100.00;94441.53;5029986;28;25015;-73
2022/03/30 05:28:52;;;;;;;19.35;10.35;;;;;;;7.62;100.00;94439.56;5029944;28;24950;-74
2022/03/30 05:31:19;;;;;;;18.38;10.00;;;;;;;7.72;100.00;94434.59;5029755;28;25296;-76
2022/03/30 05:33:45;;;;;;;18.00;10.73;;;;;;;7.80;100.00;94439.19;5030480;28;24518;-75
2022/03/30 05:36:13;;;;;;;17.95;11.43;;;;;;;7.87;100.00;94430.88;5030745;28;24443;-75
2022/03/30 05:38:40;;;;;;;17.15;10.60;;;;;;;7.64;100.00;94432.56;5030481;28;24431;-74
2022/03/30 05:41:07;;;;;;;23.02;11.75;;;;;;;7.73;100.00;94428.47;5030469;28;24778;-74
2022/03/30 05:43:33;;;;;;;26.00;12.55;;;;;;;7.71;100.00;94427.75;5030590;28;24408;-74
2022/03/30 05:46:00;;;;;;;22.95;11.73;;;;;;;7.57;100.00;94420.25;5030341;28;24416;-74
2022/03/30 05:48:26;;;;;;;20.40;11.02;;;;;;;7.50;100.00;94422.44;5030458;28;24790;-75
2022/03/30 05:50:55;;;;;;;20.73;12.10;;;;;;;7.49;100.00;94426.75;5030077;28;25007;-74
2022/03/30 05:53:22;;;;;;;18.70;11.35;;;;;;;7.55;100.00;94420.34;5031314;28;24530;-75
2022/03/30 05:55:49;;;;;;;24.83;12.43;;;;;;;7.50;100.00;94420.66;5034263;28;24440;-75
2022/03/30 05:58:15;;;;;;;19.10;12.15;;;;;;;7.40;100.00;94424.00;5034037;28;24474;-75
2022/03/30 06:00:42;;;;;;;19.02;12.15;;;;;;;7.46;100.00;94423.59;5033958;28;24451;-76
2022/03/30 06:03:10;;;;;;;25.88;12.52;;;;;;;7.39;100.00;94423.19;5033727;28;21294;-74
2022/03/30 06:05:36;;;;;;;19.67;11.25;;;;;;;7.40;100.00;94418.88;5033441;28;24423;-76
2022/03/30 06:08:03;;;;;;;17.25;10.45;;;;;;;7.44;100.00;94423.69;5033486;28;24485;-74
2022/03/30 06:10:31;;;;;;;18.67;11.25;;;;;;;7.48;100.00;94422.53;5033165;28;24503;-74
2022/03/30 06:12:58;;;;;;;23.67;11.43;;;;;;;7.53;100.00;94429.94;5033338;28;24427;-74
2022/03/30 06:15:26;;;;;;;24.83;11.57;;;;;;;7.59;100.00;94426.91;5033101;28;24977;-74
2022/03/30 06:17:55;;;;;;;20.40;12.48;;;;;;;7.60;100.00;94423.41;5033195;28;24470;-74
2022/03/30 06:20:22;;;;;;;23.27;13.23;;;;;;;7.56;100.00;94421.97;5032882;28;24489;-74
2022/03/30 06:22:49;;;;;;;26.63;12.30;;;;;;;7.43;100.00;94419.47;5033090;28;24471;-74
2022/03/30 06:25:16;;;;;;;18.15;11.55;;;;;;;7.41;100.00;94426.47;5032880;28;24418;-74
2022/03/30 06:27:43;;;;;;;23.25;13.15;;;;;;;7.41;100.00;94417.94;5032615;28;24789;-74
2022/03/30 06:30:12;;;;;;;24.05;12.73;;;;;;;7.29;100.00;94422.19;5032605;28;24466;-74
2022/03/30 06:32:38;;;;;;;22.85;13.63;;;;;;;7.30;100.00;94426.41;5032658;28;24463;-74
2022/03/30 06:35:06;;;;;;;23.63;13.25;;;;;;;7.26;100.00;94422.41;5032790;28;20823;-74
2022/03/30 06:37:33;;;;;;;23.45;13.30;;;;;;;7.38;100.00;94420.72;5032537;28;24988;-74
2022/03/30 06:39:59;;;;;;;22.17;12.40;;;;;;;7.38;100.00;94419.00;5032650;28;24423;-73
2022/03/30 06:42:26;;;;;;;24.15;12.68;;;;;;;7.36;100.00;94422.59;5032683;28;24439;-74
2022/03/30 06:44:56;;;;;;;19.85;12.10;;;;;;;7.43;100.00;94423.81;5032821;28;24424;-74
2022/03/30 06:47:23;;;;;;;22.02;11.98;;;;;;;7.37;100.00;94421.66;5032836;28;24999;-74
2022/03/30 06:49:49;;;;;;;23.48;11.55;;;;;;;7.31;100.00;94424.69;5032419;28;24976;-74
2022/03/30 06:52:15;;;;;;;19.83;12.00;;;;;;;7.41;100.00;94412.78;5032692;28;24423;-74
2022/03/30 06:54:42;;;;;;;19.80;11.05;;;;;;;7.45;100.00;94414.19;5032486;28;24949;-74
2022/03/30 06:57:08;;;;;;;24.63;13.40;;;;;;;7.26;100.00;94407.78;5032489;28;24447;-74
2022/03/30 06:59:35;;;;;;;21.23;12.80;;;;;;;7.22;100.00;94411.50;5032195;28;25050;-73
2022/03/30 07:02:04;;;;;;;27.80;12.05;;;;;;;7.30;100.00;94410.97;5032146;28;24786;-73
2022/03/30 07:04:31;;;;;;;19.35;11.05;;;;;;;7.32;100.00;94406.53;5032355;28;20799;-74
2022/03/30 07:12:26;;;;;;;26.73;11.48;;;;;;;7.35;100.00;94395.19;5029368;28;20727;-75
2022/03/30 07:14:52;;;;;;;28.85;12.73;;;;;;;7.37;100.00;94401.03;5031559;28;24439;-76
2022/03/30 07:17:20;;;;;;;22.33;11.32;;;;;;;7.32;100.00;94403.97;5030851;28;24467;-75
2022/03/30 07:19:47;;;;;;;22.05;11.25;;;;;;;7.30;100.00;94395.50;5030803;28;24825;-74
2022/03/30 07:22:14;;;;;;;20.40;11.25;;;;;;;7.38;100.00;94400.09;5031473;28;24965;-75
2022/03/30 07:24:41;;;;;;;21.65;12.02;;;;;;;7.39;100.00;94392.28;5033629;28;24888;-75
2022/03/30 07:27:08;;;;;;;24.23;11.40;;;;;;;7.48;100.00;94391.59;5050162;28;24523;-75
2022/03/30 07:29:34;;;;;;;20.13;11.87;;;;;;;7.51;100.00;94396.53;5050707;28;24535;-74
2022/03/30 07:32:02;;;;;;;31.08;12.30;;;;;;;7.49;100.00;94392.44;5050702;28;24988;-75
2022/03/30 07:34:30;;;;;;;21.48;11.15;;;;;;;7.44;100.00;94386.78;5050677;28;24976;-75
2022/03/30 07:36:57;;;;;;;20.40;11.38;;;;;;;7.56;100.00;94387.66;5050611;28;24451;-75
2022/03/30 07:39:24;;;;;;;23.67;12.15;;;;;;;7.60;100.00;94381.34;5050825;28;24505;-75
2022/03/30 07:41:50;;;;;;;23.92;12.05;;;;;;;7.56;100.00;94379.94;5050811;28;24428;-75
2022/03/30 07:44:17;;;;;;;27.02;11.38;;;;;;;7.54;100.00;94387.78;5051136;28;24812;-75
2022/03/30 07:46:44;;;;;;;22.63;11.52;;;;;;;7.65;100.00;94387.00;5051141;28;24449;-74
2022/03/30 07:49:11;;;;;;;30.33;12.63;;;;;;;7.52;100.00;94376.75;5051499;28;24427;-75
2022/03/30 07:51:39;;;;;;;22.58;10.38;;;;;;;7.62;100.00;94382.88;5050898;28;24439;-75
2022/03/30 07:54:05;;;;;;;21.67;11.82;;;;;;;7.72;100.00;94373.56;5050999;28;21346;-75
2022/03/30 07:56:32;;;;;;;25.35;11.57;;;;;;;7.66;100.00;94374.00;5050171;28;24451;-75
2022/03/30 07:59:00;;;;;;;25.70;10.63;;;;;;;7.76;100.00;94377.53;5050616;28;20782;-75
2022/03/30 08:01:26;;;;;;;20.53;11.07;;;;;;;7.82;100.00;94383.16;5050256;28;21350;-74
2022/03/30 08:03:53;;;;;;;22.33;11.48;;;;;;;7.73;100.00;94382.91;5049002;28;20771;-74
2022/03/30 08:06:19;;;;;;;24.20;10.93;;;;;;;7.82;100.00;94383.97;5049510;28;24431;-74
2022/03/30 08:08:47;;;;;;;19.83;10.35;;;;;;;7.87;100.00;94381.91;5050351;28;24434;-74
2022/03/30 08:11:13;;;;;;;19.30;10.73;;;;;;;7.88;100.00;94388.69;5050494;28;24458;-73
2022/03/30 08:13:40;;;;;;;29.90;11.63;;;;;;;7.85;100.00;94380.38;5050800;28;24524;-74
2022/03/30 08:16:06;;;;;;;22.10;10.55;;;;;;;7.90;100.00;94381.69;5050734;28;24451;-74
2022/03/30 08:18:33;;;;;;;17.48;10.13;;;;;;;7.95;100.00;94383.91;5046224;28;24467;-74
2022/03/30 08:23:43;;;;;;;30.83;11.88;;;;;;;7.92;100.00;94384.94;5049271;28;20626;-73
2022/03/30 08:26:11;;;;;;;19.52;11.32;;;;;;;7.98;100.00;94378.53;5046620;28;25056;-73
2022/03/30 08:28:38;;;;;;;26.73;11.55;;;;;;;7.98;100.00;94375.94;5049769;28;20804;-73
2022/03/30 08:31:04;;;;;;;23.05;10.43;;;;;;;8.00;100.00;94379.22;5049203;28;20770;-73
2022/03/30 08:33:30;;;;;;;23.30;11.20;;;;;;;7.97;100.00;94382.03;5049628;28;20795;-73
2022/03/30 08:35:57;;;;;;;20.42;10.45;;;;;;;7.96;100.00;94380.38;5048920;28;24832;-73
2022/03/30 08:38:24;;;;;;;17.13;10.75;;;;;;;8.04;100.00;94379.81;5049356;28;20774;-74
2022/03/30 08:40:52;;;;;;;19.95;10.57;;;;;;;8.06;100.00;94381.34;5049064;28;24847;-74
2022/03/30 08:43:20;;;;;;;22.60;10.90;;;;;;;8.08;100.00;94387.19;5049520;28;20771;-74
2022/03/30 08:45:47;;;;;;;21.02;10.82;;;;;;;8.03;100.00;94380.75;5049118;28;24992;-74
2022/03/30 08:48:13;;;;;;;24.20;11.38;;;;;;;8.05;100.00;94384.88;5049437;28;24431;-74
2022/03/30 08:50:40;;;;;;;21.83;11.23;;;;;;;8.06;100.00;94383.09;5049930;28;24480;-74
2022/03/30 08:53:07;;;;;;;24.42;11.73;;;;;;;8.05;100.00;94381.47;5050157;28;24451;-75
2022/03/30 08:55:34;;;;;;;20.40;11.27;;;;;;;8.11;100.00;94381.00;5050010;28;21161;-74
2022/03/30 08:58:00;;;;;;;28.02;11.70;;;;;;;7.97;100.00;94379.44;5049626;28;24500;-74
2022/03/30 09:00:30;;;;;;;18.17;10.50;;;;;;;8.07;100.00;94382.97;5050053;28;24516;-75
2022/03/30 09:03:00;;;;;;;27.08;12.07;;;;;;;7.96;100.00;94381.19;5048792;28;20727;-75
2022/03/30 09:05:28;;;;;;;25.23;12.07;;;;;;;7.97;100.00;94380.28;5050261;28;20701;-74
2022/03/30 09:08:09;;;;;;;24.42;11.48;;;;;;;7.96;100.00;94377.81;5050273;28;20776;-75
2022/03/30 09:10:36;;;;;;;29.65;12.05;;;;;;;7.89;100.00;94382.59;5050128;28;24431;-74
2022/03/30 09:13:04;;;;;;;26.90;12.32;;;;;;;7.96;100.00;94381.19;5050464;28;24782;-74
2022/03/30 09:15:32;;;;;;;28.25;12.52;;;;;;;8.09;100.00;94375.16;5050000;28;24424;-74
2022/03/30 09:18:00;;;;;;;21.63;11.57;;;;;;;8.18;100.00;94371.88;5050212;28;24505;-74
2022/03/30 09:20:27;;;;;;;26.58;11.48;;;;;;;8.17;100.00;94372.81;5049696;28;24854;-73
2022/03/30 09:22:56;;;;;;;24.52;11.60;;;;;;;8.18;100.00;94366.72;5050256;28;20761;-74
2022/03/30 09:25:24;;;;;;;22.08;11.75;;;;;;;8.21;100.00;94362.13;5050203;28;20796;-74
2022/03/30 09:27:53;;;;;;;25.00;11.95;;;;;;;8.32;100.00;94366.47;5050311;28;21452;-74
2022/03/30 09:30:21;;;;;;;23.95;12.15;;;;;;;8.51;100.00;94363.34;5054121;28;20750;-73
2022/03/30 09:32:51;;;;;;;30.88;12.80;;;;;;;8.56;100.00;94360.41;5054148;28;24419;-74
2022/03/30 09:35:24;;;;;;;21.17;11.27;;;;;;;8.67;100.00;94350.88;5054043;28;24789;-74
2022/03/30 09:38:04;;;;;;;18.63;10.18;;;;;;;8.72;100.00;94355.72;5054034;28;24480;-74
2022/03/30 09:40:39;;;;;;;23.77;11.63;;;;;;;8.66;100.00;94354.41;5053565;28;20999;-74
2022/03/30 09:43:21;;;;;;;29.77;11.70;;;;;;;8.55;100.00;94358.75;5054127;28;20834;-74
2022/03/30 09:45:49;;;;;;;21.20;11.48;;;;;;;8.63;100.00;94352.06;5053741;28;21023;-75
2022/03/30 09:48:20;;;;;;;23.15;11.35;;;;;;;8.65;100.00;94350.19;5053648;28;24976;-74
2022/03/30 09:50:49;;;;;;;29.30;11.75;;;;;;;8.70;100.00;94347.25;5053560;28;20758;-74
2022/03/30 09:53:18;;;;;;;25.48;11.45;;;;;;;8.83;100.00;94347.94;5053640;28;21291;-74
2022/03/30 09:55:55;;;;;;;22.55;10.80;;;;;;;8.86;100.00;94344.28;5053804;28;20827;-74
2022/03/30 09:58:23;;;;;;;19.53;9.93;;;;;;;8.86;100.00;94347.72;5053661;28;20733;-74
2022/03/30 10:01:11;;;;;;;24.10;10.52;;;;;;;8.87;100.00;94341.59;5053276;28;20800;-74
2022/03/30 10:03:42;;;;;;;18.43;9.87;;;;;;;8.88;100.00;94345.00;5053445;28;20725;-74
2022/03/30 10:06:10;;;;;;;17.38;9.98;;;;;;;8.91;100.00;94344.75;5053530;28;20870;-74
2022/03/30 10:08:37;;;;;;;23.83;10.10;;;;;;;8.96;100.00;94340.03;5053579;28;20763;-74
2022/03/30 10:11:03;;;;;;;26.00;9.75;;;;;;;8.94;100.00;94336.78;5053015;28;20779;-74
2022/03/30 10:13:30;;;;;;;24.50;9.27;;;;;;;9.04;100.00;94331.69;5053301;28;24510;-74
2022/03/30 10:15:58;;;;;;;22.02;10.27;;;;;;;9.02;100.00;94334.41;5053176;28;21320;-74
2022/03/30 10:18:25;;;;;;;19.23;9.35;;;;;;;8.96;100.00;94333.09;5053181;28;20838;-74
2022/03/30 10:21:07;;;;;;;22.58;9.60;;;;;;;8.94;100.00;94329.84;5052768;28;24530;-74
2022/03/30 10:23:46;;;;;;;25.40;10.10;;;;;;;9.01;100.00;94325.00;5053161;28;24468;-74
2022/03/30 10:26:19;;;;;;;18.13;9.07;;;;;;;9.04;100.00;94324.75;5053033;28;20751;-74
2022/03/30 10:28:57;;;;;;;21.00;10.03;;;;;;;9.02;100.00;94324.06;5053159;28;20802;-74
2022/03/30 10:31:26;;;;;;;19.73;9.25;;;;;;;9.05;100.00;94320.41;5052638;28;20699;-74
2022/03/30 10:33:53;;;;;;;30.05;10.35;;;;;;;9.04;100.00;94318.78;5052993;28;20766;-74
2022/03/30 10:36:24;;;;;;;23.48;10.32;;;;;;;8.92;100.00;94316.22;5052348;28;20808;-73
2022/03/30 10:39:24;;;;;;;18.80;10.07;;;;;;;8.96;100.00;94311.63;5051592;28;20715;-73
2022/03/30 10:41:53;;;;;;;21.38;10.75;;;;;;;8.90;100.00;94312.97;5050196;28;20864;-74
2022/03/30 10:44:35;;;;;;;18.30;10.63;;;;;;;8.78;100.00;94308.75;5046445;28;20765;-73
2022/03/30 10:47:14;;;;;;;16.90;10.30;;;;;;;8.82;100.00;94314.50;5050122;28;20839;-73
2022/03/30 10:49:43;;;;;;;22.63;10.77;;;;;;;8.75;100.00;94309.00;5049226;28;20734;-73
2022/03/30 10:52:28;;;;;;;17.60;10.85;;;;;;;8.88;100.00;94303.69;5051508;28;20775;-73
2022/03/30 10:55:30;;;;;;;19.13;10.32;;;;;;;8.79;100.00;94305.25;5050868;28;20791;-73
2022/03/30 10:57:58;;;;;;;18.17;11.53;;;;;;;8.82;100.00;94309.31;5051131;28;20822;-73
2022/03/30 11:00:26;;;;;;;17.67;10.73;;;;;;;8.85;100.00;94304.75;5051324;28;24423;-74
2022/03/30 11:02:54;;;;;;;21.10;10.48;;;;;;;8.82;100.00;94301.56;5051516;28;20774;-74
2022/03/30 11:05:28;;;;;;;21.08;11.20;;;;;;;8.78;100.00;94295.84;5048783;28;20775;-74
2022/03/30 11:07:55;;;;;;;18.20;10.57;;;;;;;8.81;100.00;94297.38;5050836;28;24471;-74
2022/03/30 11:10:29;;;;;;;16.65;11.15;;;;;;;8.82;100.00;94291.25;5050894;28;24439;-74
2022/03/30 11:13:00;;;;;;;24.67;12.43;;;;;;;8.92;100.00;94292.97;5051152;28;20725;-74
2022/03/30 11:15:27;;;;;;;18.00;11.40;;;;;;;8.93;100.00;94292.03;5050952;28;20761;-74
2022/03/30 11:17:56;;;;;;;21.83;14.57;;;;;;;9.04;100.00;94285.19;5051000;28;20850;-74
2022/03/30 11:20:24;;;;;;;25.10;13.63;;;;;;;9.10;100.00;94285.53;5050069;28;24485;-74
2022/03/30 11:22:50;;;;;;;23.13;15.55;;;;;;;9.09;100.00;94281.31;5052431;28;20819;-74
2022/03/30 11:25:20;;;;;;;28.45;16.83;;;;;;;9.12;100.00;94286.25;5052316;28;20763;-74
2022/03/30 11:28:14;;;;;;;27.63;17.10;;;;;;;9.11;100.00;94269.09;5052135;28;24523;-71
2022/03/30 11:30:43;;;;;;;21.38;16.17;;;;;;;9.14;100.00;94276.59;5051713;28;24473;-73
2022/03/30 11:33:22;;;;;;;30.08;18.70;;;;;;;9.20;100.00;94272.69;5051902;28;20767;-74